createdAt,value
2022-11-24T00:01:27.430Z,8.20
2022-11-24T00:03:59.435Z,8.10
2022-11-24T00:06:26.944Z,8.10
2022-11-24T00:08:54.254Z,8.10
2022-11-24T00:11:23.091Z,8.10
2022-11-24T00:13:50.648Z,8.00
2022-11-24T00:16:21.776Z,8.00
2022-11-24T00:18:49.922Z,7.90
2022-11-24T00:21:17.776Z,8.00
2022-11-24T00:23:45.429Z,7.90
2022-11-24T00:26:23.098Z,7.90
2022-11-24T00:28:51.258Z,7.90
2022-11-24T00:31:39.423Z,7.90
2022-11-24T00:34:08.538Z,7.90
2022-11-24T00:36:36.110Z,7.90
2022-11-24T00:39:13.184Z,7.90
2022-11-24T00:41:40.344Z,7.90
2022-11-24T00:44:07.471Z,7.90
2022-11-24T00:46:35.163Z,7.90
2022-11-24T00:49:02.457Z,7.90
2022-11-24T00:51:32.592Z,8.00
2022-11-24T00:54:00.520Z,8.10
2022-11-24T00:56:28.359Z,8.20
2022-11-24T00:58:55.562Z,8.20
2022-11-24T01:01:24.611Z,8.30
2022-11-24T01:03:52.184Z,8.40
2022-11-24T01:06:23.667Z,8.40
2022-11-24T01:08:51.306Z,8.40
2022-11-24T01:11:22.788Z,8.40
2022-11-24T01:13:52.170Z,8.30
2022-11-24T01:16:22.922Z,8.30
2022-11-24T01:18:50.125Z,8.20
2022-11-24T01:21:17.414Z,8.10
2022-11-24T01:23:44.667Z,8.00
2022-11-24T01:26:16.092Z,7.90
2022-11-24T01:28:46.936Z,7.90
2022-11-24T01:31:15.479Z,7.80
2022-11-24T01:33:45.508Z,7.70
2022-11-24T01:36:15.649Z,7.70
2022-11-24T01:38:43.152Z,7.60
2022-11-24T01:41:15.595Z,7.50
2022-11-24T01:43:43.606Z,7.40
2022-11-24T01:46:37.706Z,7.30
2022-11-24T01:49:18.663Z,7.30
2022-11-24T01:51:58.325Z,7.20
2022-11-24T01:54:34.107Z,7.10
2022-11-24T01:57:05.774Z,7.00
2022-11-24T01:59:32.932Z,6.90
2022-11-24T02:02:00.284Z,6.90
2022-11-24T02:04:29.869Z,6.90
2022-11-24T02:06:57.917Z,6.90
2022-11-24T02:09:45.446Z,6.90
2022-11-24T02:12:13.504Z,6.90
2022-11-24T02:14:41.077Z,7.00
2022-11-24T02:17:09.011Z,7.00
2022-11-24T02:19:42.095Z,7.00
2022-11-24T02:22:37.410Z,7.00
2022-11-24T02:25:16.280Z,6.90
2022-11-24T02:27:47.013Z,6.80
2022-11-24T02:30:16.992Z,6.80
2022-11-24T02:32:44.086Z,6.80
2022-11-24T02:35:13.005Z,6.70
2022-11-24T02:37:40.327Z,6.60
2022-11-24T02:40:08.175Z,6.60
2022-11-24T02:42:38.751Z,6.60
2022-11-24T02:45:06.034Z,6.60
2022-11-24T02:47:33.089Z,6.60
2022-11-24T02:50:00.283Z,6.60
2022-11-24T02:52:27.525Z,6.60
2022-11-24T02:54:54.676Z,6.70
2022-11-24T02:57:23.436Z,6.70
2022-11-24T02:59:50.852Z,6.70
2022-11-24T03:02:18.136Z,6.70
2022-11-24T03:04:45.382Z,6.70
2022-11-24T03:07:12.940Z,6.70
2022-11-24T03:09:40.167Z,6.80
2022-11-24T03:12:07.590Z,6.70
2022-11-24T03:14:35.063Z,6.80
2022-11-24T03:17:02.482Z,6.80
2022-11-24T03:19:30.203Z,6.90
2022-11-24T03:21:57.554Z,6.90
2022-11-24T03:24:24.807Z,6.90
2022-11-24T03:26:52.145Z,6.90
2022-11-24T03:29:19.329Z,6.90
2022-11-24T03:31:46.635Z,6.80
2022-11-24T03:34:13.800Z,6.80
2022-11-24T03:36:42.313Z,6.80
2022-11-24T03:39:09.916Z,6.80
2022-11-24T03:41:37.154Z,6.80
2022-11-24T03:44:04.535Z,6.80
2022-11-24T03:46:31.718Z,6.80
2022-11-24T03:48:58.954Z,6.70
2022-11-24T03:51:26.122Z,6.70
2022-11-24T03:53:53.134Z,6.70
2022-11-24T03:56:20.889Z,6.70
2022-11-24T03:58:48.108Z,6.70
2022-11-24T04:01:15.284Z,6.70
2022-11-24T04:03:42.927Z,6.70
2022-11-24T04:06:10.173Z,6.60
2022-11-24T04:08:37.276Z,6.70
2022-11-24T04:11:04.620Z,6.70
2022-11-24T04:13:31.763Z,6.70
2022-11-24T04:15:58.952Z,6.70
2022-11-24T04:18:26.093Z,6.70
2022-11-24T04:20:53.430Z,6.70
2022-11-24T04:23:20.518Z,6.70
2022-11-24T04:25:47.779Z,6.70
2022-11-24T04:28:14.992Z,6.70
2022-11-24T04:30:45.050Z,6.70
2022-11-24T04:33:13.285Z,6.70
2022-11-24T04:35:40.510Z,6.70
2022-11-24T04:38:07.696Z,6.70
2022-11-24T04:40:35.049Z,6.70
2022-11-24T04:43:02.235Z,6.60
2022-11-24T04:45:29.274Z,6.70
2022-11-24T04:47:56.566Z,6.70
2022-11-24T04:50:23.828Z,6.60
2022-11-24T04:52:50.931Z,6.60
2022-11-24T04:55:18.278Z,6.70
2022-11-24T04:57:45.550Z,6.70
2022-11-24T05:00:13.390Z,6.70
2022-11-24T05:02:40.627Z,6.70
2022-11-24T05:05:08.124Z,6.70
2022-11-24T05:07:35.285Z,6.70
2022-11-24T05:10:21.087Z,6.70
2022-11-24T05:12:57.623Z,6.70
2022-11-24T05:15:24.708Z,6.70
2022-11-24T05:17:52.079Z,6.70
2022-11-24T05:20:19.301Z,6.70
2022-11-24T05:22:46.363Z,6.70
2022-11-24T05:25:14.345Z,6.70
2022-11-24T05:27:41.685Z,6.60
2022-11-24T05:30:09.254Z,6.50
2022-11-24T05:32:36.341Z,6.50
2022-11-24T05:35:04.584Z,6.50
2022-11-24T05:37:31.987Z,6.40
2022-11-24T05:39:59.028Z,6.40
2022-11-24T05:42:46.602Z,6.40
2022-11-24T05:45:19.046Z,6.40
2022-11-24T05:47:46.373Z,6.50
2022-11-24T05:50:14.585Z,6.50
2022-11-24T05:52:41.605Z,6.60
2022-11-24T05:55:14.983Z,6.50
2022-11-24T05:57:42.886Z,6.50
2022-11-24T06:00:10.628Z,6.60
2022-11-24T06:02:41.058Z,6.50
2022-11-24T06:05:09.266Z,6.50
2022-11-24T06:07:36.541Z,6.60
2022-11-24T06:10:04.417Z,6.50
2022-11-24T06:12:31.622Z,6.50
2022-11-24T06:14:58.786Z,6.60
2022-11-24T06:17:25.993Z,6.60
2022-11-24T06:19:53.186Z,6.60
2022-11-24T06:22:20.412Z,6.50
2022-11-24T06:24:47.688Z,6.50
2022-11-24T06:27:14.789Z,6.50
2022-11-24T06:29:42.058Z,6.50
2022-11-24T06:32:09.523Z,6.50
2022-11-24T06:34:36.957Z,6.50
2022-11-24T06:37:04.496Z,6.40
2022-11-24T06:39:31.685Z,6.40
2022-11-24T06:41:58.887Z,6.30
2022-11-24T06:44:26.231Z,6.30
2022-11-24T06:46:53.590Z,6.30
2022-11-24T06:49:20.626Z,6.30
2022-11-24T06:51:47.786Z,6.20
2022-11-24T06:54:16.583Z,6.10
2022-11-24T06:56:43.731Z,6.10
2022-11-24T06:59:18.876Z,6.10
2022-11-24T07:01:47.259Z,6.10
2022-11-24T07:04:15.028Z,6.10
2022-11-24T07:06:42.785Z,6.10
2022-11-24T07:09:10.420Z,6.10
2022-11-24T07:11:37.867Z,6.10
2022-11-24T07:14:05.298Z,6.10
2022-11-24T07:16:32.603Z,6.10
2022-11-24T07:18:59.939Z,6.10
2022-11-24T07:21:27.695Z,6.00
2022-11-24T07:23:55.754Z,6.10
2022-11-24T07:26:23.420Z,6.00
2022-11-24T07:28:50.941Z,6.00
2022-11-24T07:31:22.305Z,6.10
2022-11-24T07:33:50.066Z,6.00
2022-11-24T07:36:17.251Z,6.00
2022-11-24T07:38:44.431Z,6.10
2022-11-24T07:41:13.085Z,6.10
2022-11-24T07:43:40.768Z,6.20
2022-11-24T07:46:08.961Z,6.40
2022-11-24T07:48:36.089Z,6.50
2022-11-24T07:51:03.449Z,6.70
2022-11-24T07:53:30.902Z,6.90
2022-11-24T07:56:00.532Z,7.10
2022-11-24T07:58:35.116Z,7.20
2022-11-24T08:01:17.650Z,7.30
2022-11-24T08:03:45.209Z,7.40
2022-11-24T08:06:35.876Z,7.40
2022-11-24T08:09:00.004Z,7.40
2022-11-24T08:11:28.214Z,7.40
2022-11-24T08:13:55.231Z,7.50
2022-11-24T08:16:22.449Z,7.60
2022-11-24T08:18:51.049Z,7.60
2022-11-24T08:21:18.235Z,7.60
2022-11-24T08:23:45.585Z,7.60
2022-11-24T08:26:16.122Z,7.70
2022-11-24T08:28:43.210Z,7.70
2022-11-24T08:31:20.106Z,7.80
2022-11-24T08:33:47.407Z,7.80
2022-11-24T08:36:16.005Z,7.80
2022-11-24T08:38:44.901Z,7.80
2022-11-24T08:41:14.320Z,7.80
2022-11-24T08:43:41.517Z,7.80
2022-11-24T08:46:10.536Z,7.90
2022-11-24T08:48:38.038Z,7.90
2022-11-24T08:51:09.882Z,7.90
2022-11-24T08:53:37.219Z,7.90
2022-11-24T08:56:05.851Z,8.00
2022-11-24T08:58:33.272Z,8.00
2022-11-24T09:01:16.488Z,8.10
2022-11-24T09:03:49.923Z,8.20
2022-11-24T09:06:23.207Z,8.30
2022-11-24T09:08:50.784Z,8.40
2022-11-24T09:11:18.187Z,8.40
2022-11-24T09:13:45.499Z,8.50
2022-11-24T09:16:17.740Z,8.60
2022-11-24T09:18:45.822Z,8.60
2022-11-24T09:21:18.526Z,8.60
2022-11-24T09:23:47.043Z,8.70
2022-11-24T09:26:16.144Z,8.80
2022-11-24T09:28:47.255Z,8.90
2022-11-24T09:31:16.440Z,8.90
2022-11-24T09:33:44.022Z,9.10
2022-11-24T09:36:12.901Z,9.10
2022-11-24T09:38:44.415Z,9.30
2022-11-24T09:41:18.525Z,9.40
2022-11-24T09:44:16.269Z,9.50
2022-11-24T09:46:54.970Z,9.50
2022-11-24T09:49:31.340Z,9.60
2022-11-24T09:51:59.333Z,9.60
2022-11-24T09:54:28.813Z,9.70
2022-11-24T09:56:58.101Z,9.70
2022-11-24T09:59:28.053Z,9.80
2022-11-24T10:01:56.774Z,9.80
2022-11-24T10:04:34.648Z,9.90
2022-11-24T10:07:20.014Z,9.90
2022-11-24T10:10:05.953Z,10.00
2022-11-24T10:12:45.891Z,10.10
2022-11-24T10:15:40.066Z,10.30
2022-11-24T10:18:23.993Z,10.40
2022-11-24T10:21:22.337Z,10.60
2022-11-24T10:24:15.597Z,10.70
2022-11-24T10:26:56.302Z,10.60
2022-11-24T10:29:45.306Z,10.60
2022-11-24T10:32:28.463Z,10.50
2022-11-24T10:34:56.241Z,10.50
2022-11-24T10:37:33.164Z,10.40
2022-11-24T10:43:27.351Z,10.40
2022-11-24T10:45:55.505Z,10.40
2022-11-24T10:48:26.036Z,10.50
2022-11-24T10:50:54.797Z,10.60
2022-11-24T10:53:27.086Z,10.70
2022-11-24T10:55:58.596Z,10.80
2022-11-24T10:58:38.256Z,10.80
2022-11-24T11:01:15.163Z,10.80
2022-11-24T11:03:49.484Z,10.80
2022-11-24T11:06:21.643Z,10.80
2022-11-24T11:08:48.695Z,10.90
2022-11-24T11:11:22.917Z,10.90
2022-11-24T11:13:58.178Z,11.10
2022-11-24T11:16:40.293Z,11.20
2022-11-24T11:22:29.811Z,11.40
2022-11-24T11:25:16.814Z,11.40
2022-11-24T11:27:44.477Z,11.60
2022-11-24T11:36:15.015Z,11.80
2022-11-24T11:38:42.788Z,11.90
2022-11-24T11:41:19.095Z,12.00
2022-11-24T11:43:46.506Z,12.00
2022-11-24T11:46:16.154Z,12.00
2022-11-24T11:48:47.074Z,12.10
2022-11-24T11:51:24.712Z,12.20
2022-11-24T11:54:25.215Z,12.20
2022-11-24T11:57:16.011Z,12.30
2022-11-24T11:59:46.134Z,12.30
2022-11-24T12:02:32.477Z,12.40
2022-11-24T12:05:10.627Z,12.50
2022-11-24T12:07:46.837Z,12.50
2022-11-24T12:10:37.699Z,12.40
2022-11-24T12:13:35.098Z,12.50
2022-11-24T12:16:45.660Z,12.40
2022-11-24T12:19:15.742Z,12.40
2022-11-24T12:22:07.788Z,12.40
2022-11-24T12:24:51.769Z,12.40
2022-11-24T12:27:50.107Z,12.40
2022-11-24T12:30:18.332Z,12.40
2022-11-24T12:33:14.993Z,12.40
2022-11-24T12:35:46.485Z,12.50
2022-11-24T12:38:31.935Z,12.50
2022-11-24T12:41:41.659Z,12.60
2022-11-24T12:44:31.371Z,12.70
2022-11-24T12:47:05.730Z,12.80
2022-11-24T12:49:52.216Z,12.90
2022-11-24T12:53:01.059Z,12.90
2022-11-24T12:55:29.087Z,12.90
2022-11-24T12:58:23.548Z,12.80
2022-11-24T13:01:20.558Z,12.80
2022-11-24T13:04:05.294Z,12.90
2022-11-24T13:06:54.857Z,12.90
2022-11-24T13:09:22.056Z,12.90
2022-11-24T13:12:06.123Z,12.90
2022-11-24T13:14:37.399Z,12.90
2022-11-24T13:17:32.871Z,13.00
2022-11-24T13:20:23.733Z,13.00
2022-11-24T13:23:15.139Z,13.10
2022-11-24T13:25:43.215Z,13.20
2022-11-24T13:29:01.790Z,13.20
2022-11-24T13:31:33.521Z,13.20
2022-11-24T13:34:00.714Z,13.10
2022-11-24T13:36:28.849Z,13.00
2022-11-24T13:38:56.215Z,12.90
2022-11-24T13:41:35.268Z,12.90
2022-11-24T13:44:17.356Z,12.80
2022-11-24T13:47:06.780Z,12.80
2022-11-24T13:49:38.656Z,12.70
2022-11-24T13:52:40.043Z,12.70
2022-11-24T13:55:13.723Z,12.70
2022-11-24T13:57:43.385Z,12.60
2022-11-24T14:00:32.836Z,12.60
2022-11-24T14:03:02.289Z,12.60
2022-11-24T14:05:40.254Z,12.50
2022-11-24T14:08:08.512Z,12.50
2022-11-24T14:10:37.583Z,12.50
2022-11-24T14:13:23.558Z,12.50
2022-11-24T14:16:07.001Z,12.40
2022-11-24T14:18:35.675Z,12.40
2022-11-24T14:21:21.031Z,12.30
2022-11-24T14:24:24.345Z,12.30
2022-11-24T14:26:51.539Z,12.40
2022-11-24T14:29:23.011Z,12.40
2022-11-24T14:31:58.033Z,12.40
2022-11-24T14:34:33.513Z,12.40
2022-11-24T14:37:01.336Z,12.40
2022-11-24T14:39:42.574Z,12.40
2022-11-24T14:42:22.777Z,12.30
2022-11-24T14:44:56.938Z,12.30
2022-11-24T14:47:32.607Z,12.30
2022-11-24T14:50:20.472Z,12.30
2022-11-24T14:52:57.512Z,12.20
2022-11-24T14:55:32.200Z,12.20
2022-11-24T14:58:00.003Z,12.20
2022-11-24T15:00:29.534Z,12.20
2022-11-24T15:03:17.883Z,12.20
2022-11-24T15:05:58.773Z,12.20
2022-11-24T15:08:26.879Z,12.20
2022-11-24T15:11:01.416Z,12.20
2022-11-24T15:13:29.361Z,12.30
2022-11-24T15:16:02.118Z,12.30
2022-11-24T15:18:43.555Z,12.30
2022-11-24T15:21:15.590Z,12.30
2022-11-24T15:24:04.794Z,12.30
2022-11-24T15:26:36.700Z,12.30
2022-11-24T15:29:07.484Z,12.30
2022-11-24T15:31:34.865Z,12.30
2022-11-24T15:34:02.044Z,12.40
2022-11-24T15:36:29.387Z,12.30
2022-11-24T15:38:56.514Z,12.30
2022-11-24T15:41:28.378Z,12.20
2022-11-24T15:43:59.450Z,12.20
2022-11-24T15:46:28.020Z,12.20
2022-11-24T15:48:55.830Z,12.20
2022-11-24T15:51:25.185Z,12.10
2022-11-24T15:53:57.227Z,12.10
2022-11-24T15:56:34.820Z,12.10
2022-11-24T15:59:02.163Z,12.10
2022-11-24T16:01:36.136Z,12.10
2022-11-24T16:04:06.158Z,12.10
2022-11-24T16:06:33.636Z,12.10
2022-11-24T16:09:00.816Z,12.10
2022-11-24T16:11:28.936Z,12.10
2022-11-24T16:13:56.158Z,12.00
2022-11-24T16:16:25.018Z,11.80
2022-11-24T16:19:03.790Z,11.80
2022-11-24T16:21:31.349Z,11.70
2022-11-24T16:23:58.771Z,11.60
2022-11-24T16:26:26.148Z,11.50
2022-11-24T16:28:53.404Z,11.40
2022-11-24T16:31:20.786Z,11.30
2022-11-24T16:33:48.879Z,11.20
2022-11-24T16:36:19.154Z,11.10
2022-11-24T16:38:46.417Z,11.10
2022-11-24T16:41:13.742Z,11.00
2022-11-24T16:43:41.494Z,11.00
2022-11-24T16:46:18.441Z,10.90
2022-11-24T16:48:46.580Z,10.80
2022-11-24T16:51:13.977Z,10.80
2022-11-24T16:53:41.756Z,10.70
2022-11-24T16:56:09.095Z,10.70
2022-11-24T16:58:41.014Z,10.60
2022-11-24T17:01:10.985Z,10.50
2022-11-24T17:03:44.170Z,10.50
2022-11-24T17:06:19.761Z,10.40
2022-11-24T17:08:47.032Z,10.40
2022-11-24T17:11:15.858Z,10.40
2022-11-24T17:13:52.943Z,10.40
2022-11-24T17:16:22.121Z,10.40
2022-11-24T17:18:49.568Z,10.40
2022-11-24T17:21:18.494Z,10.40
2022-11-24T17:23:45.970Z,10.30
2022-11-24T17:26:18.858Z,10.30
2022-11-24T17:28:49.530Z,10.30
2022-11-24T17:31:29.914Z,10.30
2022-11-24T17:34:00.671Z,10.20
2022-11-24T17:36:28.374Z,10.20
2022-11-24T17:38:55.727Z,10.20
2022-11-24T17:41:23.317Z,10.20
2022-11-24T17:43:58.884Z,10.10
2022-11-24T17:46:53.598Z,10.10
2022-11-24T17:49:26.200Z,10.00
2022-11-24T17:51:53.455Z,9.90
2022-11-24T17:57:20.316Z,9.90
2022-11-24T17:59:47.635Z,9.80
2022-11-24T18:06:20.127Z,9.70
2022-11-24T18:08:48.513Z,9.60
2022-11-24T18:11:16.819Z,9.60
2022-11-24T18:14:05.837Z,9.50
2022-11-24T18:16:34.582Z,9.50
2022-11-24T18:19:11.318Z,9.50
2022-11-24T18:21:42.991Z,9.40
2022-11-24T18:24:11.006Z,9.40
2022-11-24T18:26:39.368Z,9.30
2022-11-24T18:29:06.689Z,9.30
2022-11-24T18:31:48.650Z,9.40
2022-11-24T18:34:17.164Z,9.40
2022-11-24T18:37:10.489Z,9.40
2022-11-24T18:42:44.466Z,9.40
2022-11-24T18:45:21.744Z,9.40
2022-11-24T18:48:25.424Z,9.40
2022-11-24T18:50:57.004Z,9.40
2022-11-24T18:53:57.315Z,9.30
2022-11-24T18:56:45.442Z,9.30
2022-11-24T18:59:42.369Z,9.20
2022-11-24T19:02:18.055Z,9.30
2022-11-24T19:04:47.489Z,9.30
2022-11-24T19:07:20.867Z,9.30
2022-11-24T19:09:50.629Z,9.30
2022-11-24T19:12:18.849Z,9.20
2022-11-24T19:14:49.807Z,9.20
2022-11-24T19:17:17.475Z,9.20
2022-11-24T19:19:44.825Z,9.20
2022-11-24T19:22:16.840Z,9.20
2022-11-24T19:24:50.262Z,9.20
2022-11-24T19:27:24.890Z,9.20
2022-11-24T19:29:57.754Z,9.20
2022-11-24T19:32:25.094Z,9.20
2022-11-24T19:34:54.370Z,9.20
2022-11-24T19:37:23.934Z,9.20
2022-11-24T19:42:52.283Z,9.20
2022-11-24T19:45:24.068Z,9.20
2022-11-24T19:48:54.907Z,9.30
2022-11-24T19:51:15.128Z,9.40
2022-11-24T19:53:43.654Z,9.50
2022-11-24T19:56:20.782Z,9.60
2022-11-24T19:58:51.890Z,9.60
2022-11-24T20:01:59.265Z,9.60
2022-11-24T20:04:30.057Z,9.60
2022-11-24T20:07:01.257Z,9.50
2022-11-24T20:09:36.837Z,9.50
2022-11-24T20:12:27.627Z,9.40
2022-11-24T20:15:32.282Z,9.30
2022-11-24T20:18:27.194Z,9.30
2022-11-24T20:20:54.650Z,9.20
2022-11-24T20:23:22.290Z,9.20
2022-11-24T20:25:52.585Z,9.20
2022-11-24T20:28:29.888Z,9.20
2022-11-24T20:31:06.537Z,9.20
2022-11-24T20:33:34.726Z,9.20
2022-11-24T20:36:16.793Z,9.20
2022-11-24T20:38:44.421Z,9.20
2022-11-24T20:41:23.262Z,9.10
2022-11-24T20:43:50.888Z,9.10
2022-11-24T20:46:19.169Z,9.20
2022-11-24T20:48:46.652Z,9.20
2022-11-24T20:51:47.838Z,9.10
2022-11-24T20:54:16.485Z,9.10
2022-11-24T20:56:46.505Z,9.00
2022-11-24T20:59:15.586Z,9.00
2022-11-24T21:01:44.142Z,8.90
2022-11-24T21:04:56.458Z,8.90
2022-11-24T21:07:33.949Z,8.90
2022-11-24T21:10:04.515Z,8.80
2022-11-24T21:12:31.633Z,8.80
2022-11-24T21:14:59.006Z,8.80
2022-11-24T21:17:26.366Z,8.70
2022-11-24T21:20:00.858Z,8.70
2022-11-24T21:22:46.610Z,8.70
2022-11-24T21:25:13.775Z,8.70
2022-11-24T21:27:41.180Z,8.70
2022-11-24T21:30:09.483Z,8.60
2022-11-24T21:32:36.817Z,8.60
2022-11-24T21:35:04.312Z,8.50
2022-11-24T21:37:31.418Z,8.50
2022-11-24T21:39:58.671Z,8.40
2022-11-24T21:42:29.076Z,8.40
2022-11-24T21:45:00.557Z,8.30
2022-11-24T21:47:30.374Z,8.30
2022-11-24T21:49:57.722Z,8.20
2022-11-24T21:52:25.054Z,8.20
2022-11-24T21:54:52.418Z,8.20
2022-11-24T21:57:19.524Z,8.20
2022-11-24T21:59:47.114Z,8.10
2022-11-24T22:02:14.563Z,8.10
2022-11-24T22:04:41.982Z,8.10
2022-11-24T22:07:09.190Z,8.00
2022-11-24T22:09:44.393Z,8.00
2022-11-24T22:12:11.904Z,8.00
2022-11-24T22:14:40.932Z,8.00
2022-11-24T22:17:14.932Z,8.00
2022-11-24T22:19:42.826Z,8.00
2022-11-24T22:22:10.014Z,8.10
2022-11-24T22:24:37.674Z,8.10
2022-11-24T22:27:05.287Z,8.10
2022-11-24T22:29:32.489Z,8.10
2022-11-24T22:31:59.797Z,8.00
2022-11-24T22:34:27.022Z,8.00
2022-11-24T22:36:54.355Z,7.90
2022-11-24T22:39:21.864Z,8.00
2022-11-24T22:41:48.994Z,7.90
2022-11-24T22:44:22.055Z,7.90
2022-11-24T22:46:49.306Z,7.90
2022-11-24T22:49:16.412Z,7.90
2022-11-24T22:51:43.527Z,7.90
2022-11-24T22:54:16.296Z,8.00
2022-11-24T22:56:43.378Z,8.00
2022-11-24T22:59:10.410Z,8.10
2022-11-24T23:01:38.011Z,8.20
2022-11-24T23:04:05.377Z,8.30
2022-11-24T23:06:32.804Z,8.20
2022-11-24T23:09:00.759Z,8.20
2022-11-24T23:11:37.672Z,8.20
2022-11-24T23:14:09.439Z,8.10
2022-11-24T23:16:36.804Z,8.10
2022-11-24T23:19:03.993Z,8.00
2022-11-24T23:21:32.454Z,7.90
2022-11-24T23:24:00.356Z,7.90
2022-11-24T23:26:33.198Z,7.80
2022-11-24T23:29:01.307Z,7.90
2022-11-24T23:31:29.062Z,7.80
2022-11-24T23:34:00.473Z,7.80
2022-11-24T23:36:27.937Z,7.80
2022-11-24T23:38:55.076Z,7.80
2022-11-24T23:41:24.165Z,7.80
2022-11-24T23:43:52.691Z,7.70
2022-11-24T23:46:21.394Z,7.80
2022-11-24T23:48:49.295Z,7.80
2022-11-24T23:51:20.493Z,7.80
2022-11-24T23:53:47.640Z,7.80
2022-11-24T23:56:16.708Z,7.70
2022-11-24T23:58:44.101Z,7.70
